Mon Louis, Alabama
Current Conditions -  °F | °C
As of 12:53 PM on Tuesday 21 Oct 2014 (Local Time) from KBFM Reporting Station
Clear Clear  
Wind Chill: 77°   Ceiling: Unl
Heat Index: 78°   Visibility: 10mi
Dew Point: 54°   Wind: 10mph
Humidity: 45%   Direction: 20°NNE
Pressure: 30.04"   Gusts: NA
Location:  30.4032°N, 88.1801°W
Report Text: KBFM 211753Z 02009KT 10SM CLR 25/12 A3004 RMK AO2 SLP170 T02500122 10250 20111 58015
Loading
Personal Weather Stations






























Interactive Weather Map
Tropical Storm Tracking
New forecast layout! Learn more

10-Day Weather Forecast

Advertisements
Track Severe Weather on mobile